Main page
METAR-TAF:

METAR-TAF

Airports :

Perpignan, France

Perpignan–Rivesaltes Airport

latitude: 42-44N, longitude: 002-52E, elevation: 43 m

Current weather observation

The report was made 39 minutes ago, at 01:30 UTC
Wind 4 kt from the North/Northwest
Temperature 18°C
Humidity 68%
Pressure 1015 hPa
Visibility 10 km or more
no clouds below 1500 m and no cumulonimbus

METAR: LFMP 290130Z AUTO 34004KT CAVOK 18/12 Q1015

Time: 04:09 (02:09 UTC)

Forecast

The report was made 12 hours and 9 minutes ago, at 14:00 UTC
Forecast valid from 28 at 15 UTC to 29 at 15 UTC
Wind 15 kt from the East/Southeast
Visibility 10 km or more
no clouds below 1500 m and no cumulonimbus
Temporary
from 28 at 19 UTC to 29 at 09 UTC
Wind 10 kt from variable directions

TAF: LFMP 281400Z 2815/2915 12015KT CAVOK TEMPO 2819/2909 VRB10KT

Weather observations and forecasts of more than 4000 airports (METAR and TAF reports).

The available stations are represented by yellow and red dots on the map.

Hover mouse over dot to see the name of the station.

Then click to see weather observations and forecasts.

To change the map : click on the green buttons with a black cross to zoom in, on the green button with a dash to zoom out, or on the green arrows for adjacent maps.


METAR-TAF: